CST,Max TemperatureF,Mean TemperatureF,Min TemperatureF,Max Dew PointF,MeanDew PointF,Min DewpointF,Max Humidity, Mean Humidity, Min Humidity, Max Sea Level PressureIn, Mean Sea Level PressureIn, Min Sea Level PressureIn, Max VisibilityMiles, Mean VisibilityMiles, Min VisibilityMiles, Max Wind SpeedMPH, Mean Wind SpeedMPH, Max Gust SpeedMPH,PrecipitationIn, CloudCover, Events, WindDirDegrees
2013-2-1,26,18,10,18,3,-6,73,52,24,30.52,30.40,30.26,10,10,10,15,9,25,0.00,2,,232
2013-2-2,44,35,26,32,22,14,100,63,31,30.26,30.13,30.07,10,10,1,18,9,28,0.01,6,Snow,243
2013-2-3,33,30,26,32,25,18,100,83,52,30.19,30.11,30.02,10,8,0,17,5,29,0.03,3,Fog-Snow,297
2013-2-4,53,40,26,45,33,25,100,78,57,30.03,29.90,29.79,10,10,10,18,9,23,0.00,3,Rain,195
2013-2-5,57,42,26,36,29,14,100,75,18,30.13,29.98,29.91,10,8,2,15,4,22,0.00,0,,279
2013-2-6,51,38,26,37,32,21,100,78,32,30.26,30.17,30.07,10,10,4,12,5,,0.00,0,,114
2013-2-7,64,50,35,52,41,36,100,84,42,30.08,29.96,29.84,10,9,5,15,8,23,0.10,4,Rain,168
2013-2-8,42,36,30,43,35,30,100,97,87,30.38,30.27,30.03,10,9,4,15,10,23,0.00,8,,360
2013-2-9,42,36,30,39,32,30,100,85,61,30.38,30.25,30.05,10,10,7,13,7,9,0.02,5,Rain,127
2013-2-10,53,46,39,54,46,30,100,94,41,30.06,29.80,29.62,10,9,2,21,9,30,0.44,6,Rain-Thunderstorm,164
2013-2-11,51,44,37,34,24,7,70,48,16,30.16,30.04,29.80,10,10,10,26,12,37,0.00,0,,255
2013-2-12,44,37,30,39,31,21,100,76,49,30.18,30.08,29.93,10,10,10,6,2,,0.00,1,Rain,25
2013-2-13,51,43,35,41,33,19,100,74,30,29.94,29.89,29.83,10,9,4,14,5,18,0.01,3,Rain,252
2013-2-14,57,46,35,36,31,14,93,62,18,30.06,29.94,29.85,10,10,10,14,6,20,0.00,1,,250
2013-2-15,42,35,28,34,21,10,87,57,31,30.25,30.20,30.06,10,10,10,15,5,23,0.00,2,Rain,316
2013-2-16,35,29,23,19,13,3,80,54,26,30.26,30.21,30.18,10,10,10,10,5,17,0.00,0,,313
2013-2-17,46,34,21,28,22,10,86,60,34,30.21,30.12,29.96,10,10,10,14,4,18,0.00,3,,139
2013-2-18,53,45,37,48,40,27,100,80,57,29.96,29.81,29.61,10,9,4,28,15,36,0.32,5,Rain-Thunderstorm,187
2013-2-19,39,32,24,30,17,9,81,57,30,30.30,30.12,29.91,10,10,10,23,15,30,0.00,0,,285
2013-2-20,26,24,21,18,14,10,86,66,54,30.40,30.34,30.30,10,10,10,10,6,,0.00,1,,356
2013-2-21,33,27,21,32,24,18,93,85,74,30.32,30.08,29.82,10,7,0,26,8,33,0.76,6,Snow,80
2013-2-22,35,30,26,34,29,21,100,85,70,30.08,29.96,29.82,10,9,0,16,3,21,0.00,6,Fog,233
2013-2-23,33,27,21,25,21,19,93,77,56,30.08,30.04,30.00,10,10,10,8,1,,0.00,0,,290
2013-2-24,44,32,19,32,26,18,93,77,53,30.15,30.09,30.04,10,10,10,9,2,,0.00,0,,96
2013-2-25,48,39,30,36,32,27,93,74,58,30.07,29.89,29.57,10,10,5,22,9,29,0.05,2,Rain-Thunderstorm,68
2013-2-26,50,42,35,45,38,32,100,89,71,29.67,29.44,29.34,10,9,2,18,13,29,0.43,8,Rain,193
2013-2-27,37,35,33,34,30,28,93,83,75,29.90,29.80,29.67,10,8,1,21,13,26,0.00,8,Snow,267
2013-2-28,35,34,32,32,30,28,93,83,81,30.10,30.01,29.89,10,9,2,15,10,20,0.00,8,Snow,291